Mountain View, Hawaii
Current Conditions -  °F | °C
As of 4:53 AM on Saturday 25 Oct 2014 (Local Time) from PHTO Reporting Station
Clear Clear  
Wind Chill: 69°   Ceiling: Unl
Heat Index: 69°   Visibility: 10mi
Dew Point: 59°   Wind: 7mph
Humidity: 70%   Direction: 240°WSW
Pressure: 30"   Gusts: NA
Location:  19.55°N, 155.1°W
Report Text: PHTO 251453Z 24006KT 10SM CLR 21/15 A3000 RMK AO2 SLP156 T02060150 56006
Loading
Personal Weather Stations






























Interactive Weather Map
Tropical Storm Tracking
New forecast layout! Learn more

10-Day Weather Forecast

Advertisements
Track Severe Weather on mobile